Crawfordville, Florida
Current Conditions -  °F | °C
As of 4:53 PM on Monday 26 Jan 2015 (Local Time) from KTLH Reporting Station
Few Clouds Few Clouds  
Wind Chill: 57°   Ceiling: Unl
Heat Index: 57°   Visibility: 10mi
Dew Point: 35°   Wind: 15mph
Humidity: 44%   Direction: 310°NW
Pressure: 29.91"   Gusts: NA
Location:  30.18°N, 84.38°W
Report Text: KTLH 262153Z 31013KT 10SM FEW043 14/02 A2991 RMK AO2 SLP127 T01390017 $
Loading
Personal Weather Stations






























Interactive Weather Map New forecast layout! Learn more

10-Day Weather Forecast

Advertisements
Track Severe Weather on mobile